createdAt,value
2023-02-22T00:01:23.279Z,97050.72
2023-02-22T00:03:52.608Z,97053.44
2023-02-22T00:06:24.993Z,97047.22
2023-02-22T00:08:53.411Z,97045.22
2023-02-22T00:11:21.505Z,97049.75
2023-02-22T00:13:50.775Z,97054.56
2023-02-22T00:16:20.219Z,97040.75
2023-02-22T00:18:48.460Z,97049.91
2023-02-22T00:21:17.124Z,97041.59
2023-02-22T00:23:48.000Z,97048.69
2023-02-22T00:26:18.382Z,97047.97
2023-02-22T00:28:47.327Z,97049.94
2023-02-22T00:31:15.713Z,97050.25
2023-02-22T00:33:43.966Z,97043.38
2023-02-22T00:36:13.320Z,97050.78
2023-02-22T00:38:41.586Z,97044.88
2023-02-22T00:41:11.442Z,97047.00
2023-02-22T00:43:39.153Z,97046.34
2023-02-22T00:46:06.784Z,97030.97
2023-02-22T00:48:34.366Z,97041.78
2023-02-22T00:51:02.170Z,97034.88
2023-02-22T00:53:30.099Z,97035.94
2023-02-22T00:55:57.675Z,97028.38
2023-02-22T00:58:26.906Z,97031.97
2023-02-22T01:00:55.008Z,97027.25
2023-02-22T01:03:22.560Z,97031.78
2023-02-22T01:05:50.673Z,97023.63
2023-02-22T01:08:18.732Z,97015.34
2023-02-22T01:10:47.196Z,97016.75
2023-02-22T01:13:14.843Z,97001.25
2023-02-22T01:15:45.288Z,97003.97
2023-02-22T01:18:17.198Z,97009.19
2023-02-22T01:20:50.798Z,97001.38
2023-02-22T01:23:18.418Z,97009.25
2023-02-22T01:25:46.126Z,97001.13
2023-02-22T01:28:15.186Z,97003.59
2023-02-22T01:30:44.299Z,97000.59
2023-02-22T01:33:12.777Z,96999.28
2023-02-22T01:35:41.806Z,97001.31
2023-02-22T01:38:10.239Z,96998.44
2023-02-22T01:40:39.211Z,96997.09
2023-02-22T01:43:20.259Z,96993.81
2023-02-22T01:45:55.202Z,96990.75
2023-02-22T01:48:27.358Z,96987.97
2023-02-22T01:50:57.873Z,97000.06
2023-02-22T01:53:28.107Z,96989.97
2023-02-22T01:55:57.423Z,96994.00
2023-02-22T01:58:25.929Z,96991.38
2023-02-22T02:00:55.283Z,96993.41
2023-02-22T02:03:27.500Z,96982.75
2023-02-22T02:05:59.383Z,96988.97
2023-02-22T02:08:36.033Z,96992.25
2023-02-22T02:11:07.939Z,96977.72
2023-02-22T02:13:36.490Z,96980.88
2023-02-22T02:16:05.989Z,96982.34
2023-02-22T02:18:33.826Z,96970.06
2023-02-22T02:21:37.721Z,96982.97
2023-02-22T02:24:22.689Z,96971.13
2023-02-22T02:27:11.464Z,96984.25
2023-02-22T02:30:19.256Z,96980.63
2023-02-22T02:32:53.788Z,96980.38
2023-02-22T02:35:29.865Z,96978.84
2023-02-22T02:37:58.911Z,96975.09
2023-02-22T02:40:31.512Z,96969.44
2023-02-22T02:43:01.975Z,96966.69
2023-02-22T02:45:32.062Z,96968.09
2023-02-22T02:48:02.515Z,96964.66
2023-02-22T02:50:35.057Z,96962.75
2023-02-22T02:53:06.101Z,96954.66
2023-02-22T02:55:36.605Z,96957.53
2023-02-22T02:58:05.802Z,96950.53
2023-02-22T03:00:39.268Z,96945.56
2023-02-22T03:03:23.483Z,96954.03
2023-02-22T03:06:07.163Z,96954.63
2023-02-22T03:08:42.309Z,96953.81
2023-02-22T03:11:16.155Z,96952.97
2023-02-22T03:13:52.760Z,96950.34
2023-02-22T03:16:24.594Z,96941.72
2023-02-22T03:18:56.494Z,96943.03
2023-02-22T03:21:27.616Z,96931.72
2023-02-22T03:24:02.076Z,96929.59
2023-02-22T03:26:34.333Z,96939.22
2023-02-22T03:29:05.104Z,96945.38
2023-02-22T03:31:37.254Z,96939.09
2023-02-22T03:34:09.623Z,96937.69
2023-02-22T03:36:40.797Z,96927.91
2023-02-22T03:39:10.463Z,96928.72
2023-02-22T03:41:39.789Z,96926.50
2023-02-22T03:44:09.845Z,96932.28
2023-02-22T03:46:40.224Z,96941.91
2023-02-22T03:49:13.209Z,96934.53
2023-02-22T03:51:40.997Z,96927.91
2023-02-22T03:54:16.227Z,96933.69
2023-02-22T03:56:47.429Z,96928.03
2023-02-22T03:59:15.186Z,96935.28
2023-02-22T04:01:42.721Z,96930.38
2023-02-22T04:04:11.757Z,96935.84
2023-02-22T04:06:39.297Z,96926.13
2023-02-22T04:09:08.676Z,96932.72
2023-02-22T04:11:36.257Z,96928.66
2023-02-22T04:14:03.957Z,96922.44
2023-02-22T04:16:31.671Z,96920.13
2023-02-22T04:18:59.344Z,96924.44
2023-02-22T04:21:28.733Z,96919.63
2023-02-22T04:23:56.392Z,96923.16
2023-02-22T04:26:23.885Z,96918.16
2023-02-22T04:28:51.484Z,96930.47
2023-02-22T04:31:19.640Z,96920.06
2023-02-22T04:33:47.490Z,96924.06
2023-02-22T04:36:16.082Z,96924.22
2023-02-22T04:38:45.006Z,96922.34
2023-02-22T04:41:12.974Z,96918.81
2023-02-22T04:43:40.844Z,96920.97
2023-02-22T04:46:08.662Z,96922.03
2023-02-22T04:48:36.279Z,96921.34
2023-02-22T04:51:03.866Z,96926.06
2023-02-22T04:53:31.442Z,96928.81
2023-02-22T04:56:00.329Z,96919.50
2023-02-22T04:58:27.993Z,96929.47
2023-02-22T05:00:55.550Z,96925.28
2023-02-22T05:03:23.088Z,96925.53
2023-02-22T05:05:50.617Z,96930.81
2023-02-22T05:08:18.181Z,96928.94
2023-02-22T05:10:45.928Z,96926.31
2023-02-22T05:13:15.113Z,96926.31
2023-02-22T05:15:42.759Z,96921.22
2023-02-22T05:18:10.639Z,96922.97
2023-02-22T05:20:38.322Z,96912.22
2023-02-22T05:23:06.472Z,96919.34
2023-02-22T05:25:34.322Z,96923.00
2023-02-22T05:28:05.247Z,96918.81
2023-02-22T05:30:36.458Z,96917.50
2023-02-22T05:33:04.032Z,96912.88
2023-02-22T05:35:31.728Z,96929.91
2023-02-22T05:38:01.863Z,96926.72
2023-02-22T05:40:30.238Z,96923.66
2023-02-22T05:42:58.600Z,96917.28
2023-02-22T05:45:28.026Z,96923.06
2023-02-22T05:47:57.164Z,96910.94
2023-02-22T05:50:25.344Z,96922.13
2023-02-22T05:52:53.601Z,96920.56
2023-02-22T05:55:23.088Z,96918.56
2023-02-22T05:57:50.889Z,96916.50
2023-02-22T06:00:23.257Z,96915.00
2023-02-22T06:02:56.557Z,96914.84
2023-02-22T06:05:24.824Z,96914.50
2023-02-22T06:07:52.440Z,96906.69
2023-02-22T06:10:20.119Z,96898.16
2023-02-22T06:12:47.909Z,96894.72
2023-02-22T06:15:15.845Z,96898.72
2023-02-22T06:17:43.510Z,96902.06
2023-02-22T06:20:14.962Z,96906.22
2023-02-22T06:22:42.650Z,96918.25
2023-02-22T06:25:11.573Z,96913.19
2023-02-22T06:27:39.387Z,96904.06
2023-02-22T06:30:08.233Z,96929.63
2023-02-22T06:32:35.825Z,96919.91
2023-02-22T06:35:03.333Z,96921.19
2023-02-22T06:37:32.493Z,96905.16
2023-02-22T06:40:04.973Z,96921.06
2023-02-22T06:42:33.177Z,96909.47
2023-02-22T06:45:00.897Z,96907.72
2023-02-22T06:47:28.624Z,96886.28
2023-02-22T06:49:56.759Z,96905.47
2023-02-22T06:52:25.014Z,96917.72
2023-02-22T06:54:53.959Z,96928.47
2023-02-22T06:57:21.525Z,96920.00
2023-02-22T06:59:49.047Z,96925.22
2023-02-22T07:02:16.639Z,96938.06
2023-02-22T07:04:46.385Z,96940.75
2023-02-22T07:07:13.976Z,96940.25
2023-02-22T07:09:41.652Z,96928.63
2023-02-22T07:12:10.537Z,96927.66
2023-02-22T07:14:38.066Z,96929.41
2023-02-22T07:17:05.601Z,96931.91
2023-02-22T07:19:33.464Z,96927.31
2023-02-22T07:22:01.090Z,96932.03
2023-02-22T07:24:29.062Z,96932.78
2023-02-22T07:26:56.853Z,96924.91
2023-02-22T07:29:25.710Z,96926.09
2023-02-22T07:31:53.231Z,96918.28
2023-02-22T07:34:20.785Z,96922.63
2023-02-22T07:36:48.828Z,96908.38
2023-02-22T07:39:16.372Z,96923.47
2023-02-22T07:41:43.894Z,96929.44
2023-02-22T07:44:11.416Z,96924.66
2023-02-22T07:46:40.327Z,96922.31
2023-02-22T07:49:07.861Z,96923.16
2023-02-22T07:51:35.412Z,96922.75
2023-02-22T07:54:02.927Z,96921.50
2023-02-22T07:56:30.484Z,96915.63
2023-02-22T07:58:58.006Z,96919.22
2023-02-22T08:01:25.718Z,96911.56
2023-02-22T08:03:55.853Z,96912.53
2023-02-22T08:06:25.827Z,96915.84
2023-02-22T08:08:53.364Z,96910.63
2023-02-22T08:11:20.949Z,96909.25
2023-02-22T08:13:48.531Z,96894.38
2023-02-22T08:16:16.213Z,96901.16
2023-02-22T08:18:43.766Z,96900.44
2023-02-22T08:21:12.741Z,96902.38
2023-02-22T08:23:40.280Z,96906.50
2023-02-22T08:26:09.081Z,96902.50
2023-02-22T08:28:36.647Z,96899.84
2023-02-22T08:31:07.236Z,96878.25
2023-02-22T08:33:35.515Z,96895.41
2023-02-22T08:36:03.200Z,96896.75
2023-02-22T08:38:33.912Z,96896.63
2023-02-22T08:41:01.469Z,96887.13
2023-02-22T08:43:29.615Z,96891.91
2023-02-22T08:45:57.901Z,96882.78
2023-02-22T08:48:25.602Z,96876.00
2023-02-22T08:50:53.156Z,96882.00
2023-02-22T08:53:20.701Z,96873.44
2023-02-22T08:55:50.349Z,96875.38
2023-02-22T08:58:17.880Z,96867.34
2023-02-22T09:00:45.605Z,96868.84
2023-02-22T09:03:14.601Z,96870.66
2023-02-22T09:05:42.380Z,96872.13
2023-02-22T09:08:10.297Z,96861.72
2023-02-22T09:10:38.176Z,96857.50
2023-02-22T09:13:07.569Z,96854.63
2023-02-22T09:15:36.808Z,96869.28
2023-02-22T09:18:05.678Z,96853.63
2023-02-22T09:20:34.585Z,96863.00
2023-02-22T09:23:03.969Z,96860.97
2023-02-22T09:25:31.691Z,96862.94
2023-02-22T09:27:59.221Z,96854.91
2023-02-22T09:30:32.258Z,96855.47
2023-02-22T09:33:02.247Z,96852.97
2023-02-22T09:35:30.430Z,96861.25
2023-02-22T09:37:59.459Z,96860.78
2023-02-22T09:40:29.900Z,96859.53
2023-02-22T09:43:08.678Z,96848.69
2023-02-22T09:45:40.516Z,96850.00
2023-02-22T09:48:21.192Z,96847.25
2023-02-22T09:50:50.663Z,96842.66
2023-02-22T09:53:29.680Z,96836.44
2023-02-22T09:56:00.963Z,96831.50
2023-02-22T09:58:34.325Z,96830.44
2023-02-22T10:01:14.750Z,96827.66
2023-02-22T10:03:50.617Z,96822.94
2023-02-22T10:06:24.094Z,96820.91
2023-02-22T10:08:56.486Z,96820.28
2023-02-22T10:11:44.239Z,96812.16
2023-02-22T10:14:29.298Z,96813.78
2023-02-22T10:17:03.385Z,96809.91
2023-02-22T10:19:33.413Z,96801.56
2023-02-22T10:22:18.837Z,96804.94
2023-02-22T10:24:53.789Z,96797.28
2023-02-22T10:27:23.917Z,96796.78
2023-02-22T10:29:56.163Z,96795.72
2023-02-22T10:32:31.699Z,96794.16
2023-02-22T10:34:59.928Z,96790.97
2023-02-22T10:37:29.804Z,96787.09
2023-02-22T10:40:05.426Z,96779.38
2023-02-22T10:42:33.070Z,96776.25
2023-02-22T10:45:00.768Z,96769.13
2023-02-22T10:47:30.617Z,96771.22
2023-02-22T10:50:00.484Z,96768.09
2023-02-22T10:52:30.091Z,96766.25
2023-02-22T10:55:14.144Z,96756.38
2023-02-22T10:57:43.950Z,96761.78
2023-02-22T11:00:19.688Z,96743.63
2023-02-22T11:02:54.497Z,96750.38
2023-02-22T11:05:36.764Z,96749.84
2023-02-22T11:08:28.046Z,96751.53
2023-02-22T11:10:57.501Z,96740.94
2023-02-22T11:13:26.863Z,96736.22
2023-02-22T11:15:55.304Z,96732.00
2023-02-22T11:18:27.514Z,96724.59
2023-02-22T11:21:03.972Z,96722.50
2023-02-22T11:23:31.847Z,96715.81
2023-02-22T11:26:07.318Z,96708.63
2023-02-22T11:28:35.419Z,96715.09
2023-02-22T11:31:17.457Z,96712.66
2023-02-22T11:36:37.336Z,96699.59
2023-02-22T11:39:11.634Z,96693.44
2023-02-22T11:41:39.370Z,96697.72
2023-02-22T11:44:21.426Z,96692.63
2023-02-22T11:46:49.258Z,96690.25
2023-02-22T11:49:20.048Z,96690.25
2023-02-22T11:51:57.389Z,96689.63
2023-02-22T11:54:34.586Z,96689.78
2023-02-22T11:57:16.026Z,96684.50
2023-02-22T11:59:48.688Z,96681.19
2023-02-22T12:02:30.853Z,96676.28
2023-02-22T12:05:13.332Z,96669.06
2023-02-22T12:07:56.378Z,96664.19
2023-02-22T12:10:34.908Z,96662.75
2023-02-22T12:13:10.960Z,96662.16
2023-02-22T12:15:42.937Z,96657.03
2023-02-22T12:18:14.281Z,96652.53
2023-02-22T12:20:47.639Z,96651.34
2023-02-22T12:23:20.026Z,96646.22
2023-02-22T12:25:58.371Z,96649.91
2023-02-22T12:28:31.798Z,96651.13
2023-02-22T12:31:07.813Z,96653.97
2023-02-22T12:33:48.826Z,96642.16
2023-02-22T12:36:20.858Z,96643.16
2023-02-22T12:38:52.973Z,96638.44
2023-02-22T12:41:27.999Z,96637.22
2023-02-22T12:43:59.805Z,96632.28
2023-02-22T12:46:31.748Z,96627.22
2023-02-22T12:49:03.371Z,96633.94
2023-02-22T12:51:35.673Z,96635.16
2023-02-22T12:54:08.689Z,96625.53
2023-02-22T12:56:41.153Z,96621.59
2023-02-22T12:59:13.492Z,96618.75
2023-02-22T13:01:43.331Z,96620.66
2023-02-22T13:04:20.666Z,96614.38
2023-02-22T13:07:02.634Z,96616.47
2023-02-22T13:10:00.608Z,96612.59
2023-02-22T13:12:33.601Z,96615.59
2023-02-22T13:15:09.479Z,96605.84
2023-02-22T13:17:41.721Z,96607.72
2023-02-22T13:20:14.320Z,96606.75
2023-02-22T13:22:46.621Z,96601.00
2023-02-22T13:25:17.477Z,96585.50
2023-02-22T13:27:48.696Z,96597.09
2023-02-22T13:30:21.881Z,96607.22
2023-02-22T13:33:04.007Z,96607.13
2023-02-22T13:35:40.944Z,96600.38
2023-02-22T13:38:47.445Z,96602.00
2023-02-22T13:41:37.417Z,96592.97
2023-02-22T13:44:19.945Z,96589.84
2023-02-22T13:47:10.297Z,96598.81
2023-02-22T13:49:51.382Z,96583.88
2023-02-22T13:52:21.349Z,96595.97
2023-02-22T13:54:54.409Z,96585.41
2023-02-22T13:57:24.654Z,96589.06
2023-02-22T14:00:21.007Z,96588.28
2023-02-22T14:03:01.276Z,96593.66
2023-02-22T14:05:51.884Z,96587.94
2023-02-22T14:08:46.091Z,96580.88
2023-02-22T14:11:56.761Z,96584.50
2023-02-22T14:14:25.910Z,96581.41
2023-02-22T14:17:22.778Z,96580.03
2023-02-22T14:20:16.640Z,96583.72
2023-02-22T14:22:46.950Z,96576.56
2023-02-22T14:25:34.239Z,96571.63
2023-02-22T14:28:02.853Z,96575.72
2023-02-22T14:30:33.320Z,96566.91
2023-02-22T14:33:01.619Z,96572.63
2023-02-22T14:35:47.871Z,96563.78
2023-02-22T14:38:19.182Z,96566.81
2023-02-22T14:40:49.350Z,96566.22
2023-02-22T14:43:20.132Z,96557.34
2023-02-22T14:45:54.265Z,96569.41
2023-02-22T14:48:28.408Z,96560.00
2023-02-22T14:51:02.017Z,96568.03
2023-02-22T14:53:39.222Z,96559.16
2023-02-22T14:56:11.786Z,96560.44
2023-02-22T14:58:45.162Z,96562.25
2023-02-22T15:01:33.955Z,96557.09
2023-02-22T15:04:21.470Z,96556.78
2023-02-22T15:06:49.406Z,96553.69
2023-02-22T15:09:25.110Z,96549.91
2023-02-22T15:11:56.214Z,96556.63
2023-02-22T15:14:26.915Z,96552.56
2023-02-22T15:16:57.815Z,96550.97
2023-02-22T15:19:28.419Z,96547.38
2023-02-22T15:21:57.474Z,96549.31
2023-02-22T15:24:27.956Z,96546.72
2023-02-22T15:27:02.486Z,96545.75
2023-02-22T15:29:36.301Z,96546.63
2023-02-22T15:32:19.792Z,96548.94
2023-02-22T15:34:47.438Z,96551.66
2023-02-22T15:37:25.144Z,96541.66
2023-02-22T15:39:59.189Z,96539.44
2023-02-22T15:42:29.422Z,96538.84
2023-02-22T15:44:58.081Z,96542.75
2023-02-22T15:47:29.261Z,96539.69
2023-02-22T15:50:18.237Z,96537.84
2023-02-22T15:52:53.136Z,96541.56
2023-02-22T15:55:24.789Z,96544.78
2023-02-22T15:57:53.474Z,96547.88
2023-02-22T16:00:23.769Z,96547.44
2023-02-22T16:02:52.931Z,96539.69
2023-02-22T16:05:20.573Z,96546.16
2023-02-22T16:07:49.987Z,96551.88
2023-02-22T16:10:22.734Z,96546.75
2023-02-22T16:12:50.361Z,96559.34
2023-02-22T16:15:20.010Z,96551.13
2023-02-22T16:18:01.694Z,96555.19
2023-02-22T16:20:36.426Z,96556.34
2023-02-22T16:23:26.048Z,96552.84
2023-02-22T16:26:08.060Z,96558.50
2023-02-22T16:28:35.973Z,96553.34
2023-02-22T16:31:04.251Z,96561.44
2023-02-22T16:33:34.069Z,96561.34
2023-02-22T16:36:08.115Z,96568.81
2023-02-22T16:38:38.480Z,96560.13
2023-02-22T16:41:07.305Z,96567.81
2023-02-22T16:43:36.827Z,96568.78
2023-02-22T16:46:06.810Z,96558.78
2023-02-22T16:48:38.106Z,96561.75
2023-02-22T16:51:14.757Z,96551.63
2023-02-22T16:53:42.457Z,96561.81
2023-02-22T16:56:11.610Z,96560.69
2023-02-22T16:58:41.433Z,96562.44
2023-02-22T17:01:09.470Z,96562.75
2023-02-22T17:03:38.021Z,96567.16
2023-02-22T17:06:06.077Z,96567.59
2023-02-22T17:08:34.939Z,96556.72
2023-02-22T17:11:03.213Z,96570.81
2023-02-22T17:13:30.877Z,96566.03
2023-02-22T17:15:58.812Z,96573.00
2023-02-22T17:18:28.785Z,96567.47
2023-02-22T17:20:57.341Z,96569.72
2023-02-22T17:23:27.530Z,96571.56
2023-02-22T17:25:59.263Z,96574.28
2023-02-22T17:28:27.520Z,96582.19
2023-02-22T17:31:00.482Z,96582.63
2023-02-22T17:33:30.639Z,96585.22
2023-02-22T17:35:59.817Z,96590.84
2023-02-22T17:38:29.051Z,96587.25
2023-02-22T17:40:59.317Z,96586.34
2023-02-22T17:43:28.749Z,96585.53
2023-02-22T17:45:56.431Z,96592.94
2023-02-22T17:48:24.629Z,96589.56
2023-02-22T17:50:52.793Z,96594.00
2023-02-22T17:53:24.998Z,96589.09
2023-02-22T17:55:53.087Z,96583.53
2023-02-22T17:58:23.542Z,96581.06
2023-02-22T18:00:51.825Z,96584.34
2023-02-22T18:03:21.951Z,96588.91
2023-02-22T18:05:51.102Z,96584.47
2023-02-22T18:08:18.767Z,96578.34
2023-02-22T18:10:47.188Z,96579.91
2023-02-22T18:13:17.868Z,96586.75
2023-02-22T18:15:48.528Z,96586.03
2023-02-22T18:18:17.667Z,96585.66
2023-02-22T18:20:45.750Z,96588.31
2023-02-22T18:23:15.997Z,96590.13
2023-02-22T18:25:57.146Z,96587.56
2023-02-22T18:28:32.218Z,96564.34
2023-02-22T18:31:01.264Z,96583.25
2023-02-22T18:33:28.999Z,96584.75
2023-02-22T18:35:56.552Z,96585.13
2023-02-22T18:38:24.752Z,96582.53
2023-02-22T18:40:59.841Z,96586.69
2023-02-22T18:43:27.801Z,96588.16
2023-02-22T18:45:55.587Z,96590.81
2023-02-22T18:48:24.442Z,96587.19
2023-02-22T18:50:51.972Z,96589.69
2023-02-22T18:53:19.520Z,96597.50
2023-02-22T18:55:47.094Z,96576.72
2023-02-22T18:58:14.675Z,96583.94
2023-02-22T19:00:42.837Z,96572.53
2023-02-22T19:03:10.545Z,96584.41
2023-02-22T19:05:39.552Z,96575.44
2023-02-22T19:08:11.196Z,96580.19
2023-02-22T19:10:39.072Z,96578.94
2023-02-22T19:13:10.754Z,96580.75
2023-02-22T19:15:39.457Z,96573.09
2023-02-22T19:18:07.149Z,96574.72
2023-02-22T19:20:34.736Z,96575.94
2023-02-22T19:23:03.672Z,96570.72
2023-02-22T19:25:31.198Z,96576.09
2023-02-22T19:27:59.096Z,96575.34
2023-02-22T19:30:27.966Z,96575.00
2023-02-22T19:32:55.744Z,96579.03
2023-02-22T19:35:27.071Z,96584.00
2023-02-22T19:37:55.421Z,96587.47
2023-02-22T19:40:24.332Z,96584.53
2023-02-22T19:42:53.038Z,96595.72
2023-02-22T19:45:20.933Z,96593.03
2023-02-22T19:47:48.848Z,96593.34
2023-02-22T19:50:18.672Z,96595.16
2023-02-22T19:52:46.297Z,96597.47
2023-02-22T19:55:14.248Z,96584.59
2023-02-22T19:57:46.313Z,96591.69
2023-02-22T20:00:23.981Z,96596.97
2023-02-22T20:03:05.855Z,96597.81
2023-02-22T20:05:37.278Z,96599.78
2023-02-22T20:08:05.087Z,96602.13
2023-02-22T20:10:34.373Z,96606.41
2023-02-22T20:13:03.480Z,96611.03
2023-02-22T20:15:31.348Z,96616.00
2023-02-22T20:18:00.125Z,96619.25
2023-02-22T20:20:30.501Z,96623.00
2023-02-22T20:22:58.709Z,96625.19
2023-02-22T20:25:26.280Z,96624.88
2023-02-22T20:27:53.782Z,96627.50
2023-02-22T20:30:23.051Z,96626.59
2023-02-22T20:32:50.796Z,96624.63
2023-02-22T20:35:18.531Z,96628.25
2023-02-22T20:37:46.440Z,96629.72
2023-02-22T20:40:13.989Z,96614.63
2023-02-22T20:42:41.603Z,96618.41
2023-02-22T20:45:11.927Z,96616.91
2023-02-22T20:47:40.953Z,96622.16
2023-02-22T20:50:09.904Z,96604.94
2023-02-22T20:52:37.532Z,96625.13
2023-02-22T20:55:06.185Z,96619.03
2023-02-22T20:57:33.744Z,96622.63
2023-02-22T21:00:01.281Z,96627.06
2023-02-22T21:02:28.812Z,96628.38
2023-02-22T21:04:58.152Z,96620.69
2023-02-22T21:07:25.812Z,96621.81
2023-02-22T21:09:53.384Z,96624.44
2023-02-22T21:12:21.075Z,96627.88
2023-02-22T21:14:48.700Z,96624.63
2023-02-22T21:17:21.483Z,96623.47
2023-02-22T21:19:49.060Z,96621.84
2023-02-22T21:22:17.935Z,96624.28
2023-02-22T21:24:45.515Z,96625.44
2023-02-22T21:27:13.052Z,96620.34
2023-02-22T21:29:40.702Z,96616.41
2023-02-22T21:32:10.783Z,96626.44
2023-02-22T21:34:39.178Z,96612.78
2023-02-22T21:37:08.442Z,96617.25
2023-02-22T21:39:37.346Z,96623.31
2023-02-22T21:42:07.155Z,96617.72
2023-02-22T21:44:34.681Z,96620.53
2023-02-22T21:47:02.235Z,96616.25
2023-02-22T21:49:29.981Z,96628.59
2023-02-22T21:51:57.609Z,96625.78
2023-02-22T21:54:27.949Z,96619.22
2023-02-22T21:56:57.083Z,96620.53
2023-02-22T21:59:24.872Z,96618.88
2023-02-22T22:01:55.826Z,96611.47
2023-02-22T22:04:27.397Z,96628.22
2023-02-22T22:06:57.307Z,96626.75
2023-02-22T22:09:28.901Z,96629.53
2023-02-22T22:11:59.307Z,96622.50
2023-02-22T22:14:27.357Z,96631.69
2023-02-22T22:16:58.427Z,96629.53
2023-02-22T22:19:26.454Z,96624.13
2023-02-22T22:21:54.440Z,96623.63
2023-02-22T22:24:23.429Z,96618.56
2023-02-22T22:26:54.524Z,96621.34
2023-02-22T22:29:24.565Z,96612.28
2023-02-22T22:31:52.889Z,96620.16
2023-02-22T22:34:20.813Z,96608.84
2023-02-22T22:36:48.464Z,96623.94
2023-02-22T22:39:16.069Z,96618.38
2023-02-22T22:41:45.089Z,96613.91
2023-02-22T22:44:15.221Z,96608.00
2023-02-22T22:46:49.054Z,96619.69
2023-02-22T22:49:17.166Z,96620.94
2023-02-22T22:51:47.316Z,96627.53
2023-02-22T22:54:15.694Z,96625.59
2023-02-22T22:56:43.239Z,96621.78
2023-02-22T22:59:13.788Z,96627.53
2023-02-22T23:01:44.346Z,96609.78
2023-02-22T23:04:16.201Z,96616.22
2023-02-22T23:06:45.307Z,96617.06
2023-02-22T23:09:18.708Z,96623.28
2023-02-22T23:11:50.504Z,96625.59
2023-02-22T23:14:19.786Z,96620.47
2023-02-22T23:16:47.409Z,96625.25
2023-02-22T23:19:16.703Z,96621.66
2023-02-22T23:21:44.757Z,96620.47
2023-02-22T23:24:15.151Z,96628.88
2023-02-22T23:26:43.052Z,96629.81
2023-02-22T23:29:10.580Z,96627.34
2023-02-22T23:31:42.679Z,96634.72
2023-02-22T23:34:11.334Z,96629.19
2023-02-22T23:36:44.269Z,96631.16
2023-02-22T23:39:12.406Z,96620.28
2023-02-22T23:41:39.957Z,96629.97
2023-02-22T23:44:13.963Z,96630.91
2023-02-22T23:46:42.134Z,96627.94
2023-02-22T23:49:10.185Z,96629.91
2023-02-22T23:51:41.943Z,96629.72
2023-02-22T23:54:14.140Z,96632.50
2023-02-22T23:56:47.100Z,96641.38
2023-02-22T23:59:15.538Z,96632.53
